Gilze-Rijen, Netherlands

11:41 AM CET on February 06, 2016 (GMT +0100)
Gilze-Rijen Air Base | | Change Station
CLOSE
Current Station
Airport
Location: Gilze-Rijen,
Elevation: 43 ft
Nearby Weather Stations

Elev 43 ft 51.56 °N, 4.94 °E | Updated 12 minutes ago

Overcast
Overcast
50 °F
Feels Like 50 °F
N
17
Wind Variable Wind from SSW

Today
High -- | Low -- °F
--% Chance of Precip.
Yesterday
High -- | Low -- °F
Precip. -- in
Pressure 29.80 in
Visibility 6.2 miles
Clouds Scattered Clouds 2000 ft
Scattered Clouds 2400 ft
Overcast 3500 ft
Dew Point 43 °F
Humidity 76%
Rainfall 0.00 in
Snow Depth Not available.
8:11 AM 5:37 PM
Waning Crescent, 6% visible
SPECI EHGR 061029Z AUTO 20015KT 170V240 9999 SCT020 SCT024 OVC035 10/06 Q1009 WHT
Pressure 29.80 in
Visibility 6.2 miles
Clouds Scattered Clouds 2000 ft
Scattered Clouds 2400 ft
Overcast 3500 ft
Dew Point 43 °F
Humidity 76%
Rainfall 0.00 in
Snow Depth Not available.
8:11 AM 5:37 PM
Waning Crescent, 6% visible
SPECI EHGR 061029Z AUTO 20015KT 170V240 9999 SCT020 SCT024 OVC035 10/06 Q1009 WHT

10-Day Weather Forecast

Almanac

Astronomy

Feb. 06, 2016 Rise Set
Actual Time
Civil Twilight
Nautical Twilight
Astronomical Twilight
Moon
Length of Visible Light
Length of Day
Tomorrow will be .
, % of the Moon is Illuminated

Today's Extremes

Country Highs Country Lows

Community

WunderPhotos

Upload Photos

1,890,933 photos uploaded!

WunderBlog® & News

Nearby

Air Quality

  Air Quality AQ Index Pollutant
Not available.

Snow Depth

Station Depth Elevation

Earthquake Activity

City Distance Mag. Time & Date
Minimum magnitude displayed is 2.5.

Coastal Water Temperatures

Place Temperature

Stations

Nearby Weather Stations

Station Location Temp. Windchill Dew Point Humidity Wind Precip. Elev Updated Type